Home   Weather   Germany   Duisburg   Past weeks
Flag for Germany

Past Weather in Duisburg, North Rhine-Westphalia, Germany — Yesterday and Last 2 Weeks

Currently: 86 °F. Passing clouds. (Weather station: Duesseldorf, Germany). See more current weather

Past Weather in Duisburg — Graph

°F

Duisburg Temperature Yesterday

Maximum temperature yesterday: 93 °F (at 4:20 pm)
Minimum temperature yesterday: 72 °F (at 3:50 am)
Average temperature yesterday: 82 °F

High & Low Weather Summary for the Past Weeks

 TemperatureHumidityPressure
High93 °F (Jun 17, 1:50 pm)100% (Jun 5, 12:50 am)30.36 "Hg (Jun 5, 12:50 am)
Low46 °F (Jun 13, 5:20 am)28% (Jun 18, 5:50 pm)29.83 "Hg (Jun 16, 9:20 pm)
Average69 °F67%30.10 "Hg
* Reported Jun 4 4:20 pm — Jun 19 4:20 pm, Duisburg. Weather by CustomWeather, © 2021

Note: Actual official high and low records may vary slightly from our data, if they occured in-between our weather recording intervals... More about our weather records

Duisburg Weather History for the Previous 24 Hours

Scroll right to see more
 ConditionsComfort  
Time TempWeatherWind HumidityBarometerVisibility
4:20 pm
Sat, Jun 19
82 °FPassing clouds.6 mph51%29.92 "HgN/A
3:50 pm82 °FPassing clouds.8 mph48%29.92 "HgN/A
3:20 pm82 °FPassing clouds.8 mph48%29.92 "HgN/A
2:50 pm82 °FPassing clouds.9 mph45%29.92 "HgN/A
2:20 pm82 °FPassing clouds.6 mph48%29.92 "HgN/A
1:50 pm82 °FSunny.5 mph48%29.92 "Hg10 mi
1:20 pm81 °FSunny.6 mph48%29.95 "Hg10 mi
12:50 pm81 °FPassing clouds.6 mph51%29.95 "HgN/A
12:20 pm79 °FPassing clouds.7 mph51%29.95 "HgN/A
11:50 am79 °FPassing clouds.7 mph51%29.95 "HgN/A
11:20 am79 °FSunny.6 mph54%29.98 "Hg10 mi
10:50 am77 °FPassing clouds.5 mph57%29.98 "HgN/A
10:20 am77 °FPassing clouds.5 mph57%29.98 "HgN/A
9:50 am75 °FPassing clouds.8 mph61%29.98 "HgN/A
9:20 am73 °FPassing clouds.9 mph65%29.98 "HgN/A
8:50 am72 °FPassing clouds.12 mph69%29.98 "HgN/A
8:20 am70 °FPassing clouds.14 mph73%29.98 "HgN/A
7:50 am72 °FPassing clouds.14 mph69%29.98 "HgN/A
7:20 am70 °FPassing clouds.14 mph73%29.98 "HgN/A
6:50 am70 °FPassing clouds.7 mph73%29.95 "HgN/A
6:20 am68 °FPassing clouds.9 mph78%29.95 "HgN/A
5:50 am66 °FPassing clouds.8 mph83%29.95 "HgN/A
5:20 am66 °FSunny.9 mph78%29.95 "Hg10 mi
4:50 am66 °FClear.7 mph83%29.92 "Hg10 mi
4:20 am68 °FClear.9 mph78%29.92 "Hg10 mi
3:50 am68 °FClear.9 mph78%29.92 "Hg10 mi
3:20 am68 °FClear.7 mph78%29.92 "Hg10 mi
2:50 am70 °FClear.3 mph73%29.92 "Hg10 mi
2:20 am72 °FClear.6 mph69%29.92 "Hg10 mi
1:50 am75 °FClear.6 mph65%29.92 "Hg10 mi
1:20 am75 °FPassing clouds.7 mph65%29.89 "HgN/A
12:50 am77 °FClear.7 mph61%29.89 "Hg10 mi
12:20 am77 °FClear.8 mph61%29.89 "Hg10 mi
11:50 pm
Fri, Jun 18
75 °FClear.9 mph65%29.89 "Hg10 mi
11:20 pm79 °FClear.8 mph54%29.86 "Hg10 mi
10:50 pm81 °FPassing clouds.10 mph51%29.86 "HgN/A
10:20 pm81 °FPassing clouds.9 mph51%29.86 "HgN/A
9:50 pm81 °FPassing clouds.10 mph51%29.86 "HgN/A
9:20 pm84 °FPassing clouds.14 mph43%29.83 "HgN/A
8:50 pm86 °FSunny.15 mph40%29.83 "Hg10 mi
8:20 pm88 °FSunny.15 mph38%29.83 "Hg10 mi
7:50 pm88 °FSunny.17 mph38%29.83 "Hg10 mi
7:20 pm90 °FSunny.21 mph33%29.83 "Hg10 mi
6:50 pm91 °FPassing clouds.16 mph32%29.83 "HgN/A
6:20 pm91 °FPassing clouds.17 mph30%29.83 "HgN/A
5:50 pm93 °FPassing clouds.17 mph28%29.83 "HgN/A
5:20 pm91 °FPassing clouds.14 mph30%29.83 "HgN/A
Weather by CustomWeather, © 2021

See weather overview